Weather observations for the past three days for
Canefield Airport
Metric (Imperial)
Date Time (ast) Wind (kph) Vis. (km) Weather Sky Cond. Temperature (ºC) Relative Humidity Wind Chill (°C) Heat Index (°C) Pressure Precipitation (cm)
Air Dwpt 6 hour altimeter (cm) sea level (mb) 1 hr 3 hr 6 hr
Max. Min.
05 16:00 W 2 0.00 A Few Clouds FEW018 35 28 67% 49 0 0.0
05 13:00 NW 7 0.00 Partly Cloudy SCT017 31 28 84% 42 0 0.0
05 12:00 NW 4 0.00 A Few Clouds FEW020 32 28 79% 44 0 0.0
05 11:00 NW 4 0.00 A Few Clouds FEW020 32 27 75% 42 0 0.0
05 09:00 NW 2 0.00 A Few Clouds FEW019 30 27 84% 39 0 0.0
05 08:00 Vrbl 4 0.00 A Few Clouds FEW019 28 28 100% 36 0 0.0
04 16:00 Vrbl 2 0.00 A Few Clouds FEW019 34 28 71% 47 0 0.0
04 15:00 Vrbl 4 0.00 A Few Clouds FEW019 32 28 79% 44 0 0.0
04 14:00 NW 7 0.00 A Few Clouds FEW018 33 28 75% 46 0 0.0
04 13:00 Vrbl 2 0.00 Partly Cloudy SCT019 34 28 71% 47 0 0.0
04 12:00 Vrbl 2 0.00 Partly Cloudy SCT019 34 28 71% 47 0 0.0
04 11:00 Vrbl 4 0.00 Mostly Cloudy BKN019 34 28 71% 47 0 0.0
04 10:00 Vrbl 4 0.00 Mostly Cloudy BKN017 31 27 79% 41 0 0.0
04 09:00 NW 6 0.00 Partly Cloudy SCT018 30 27 84% 39 0 0.0
04 08:00 Vrbl 2 0.00 Partly Cloudy FEW016 SCT018 30 27 84% 39 0 0.0
03 16:00 NW 4 0.00 A Few Clouds FEW022 32 27 75% 42 0 0.0
03 15:00 NW 6 0.00 A Few Clouds FEW024 33 27 71% 44 0 0.0
03 14:00 NW 4 0.00 A Few Clouds FEW024 33 27 71% 44 0 0.0
03 13:00 NW 4 0.00 A Few Clouds FEW024 33 27 71% 44 0 0.0
03 12:00 W 2 0.00 A Few Clouds FEW024 34 27 67% 45 0 0.0
03 11:00 NW 4 0.00 A Few Clouds FEW022 32 26 71% 41 0 0.0
03 10:00 NW 6 0.00 A Few Clouds FEW020 30 26 79% 37 0 0.0
03 09:00 NW 6 0.00 A Few Clouds FEW022 29 25 79% 35 0 0.0
03 08:00 S 4 0.00 A Few Clouds FEW022 30 26 79% 37 0 0.0
Date Time (ast) Wind (kph) Vis. (km) Weather Sky Cond. Air Dwpt Max. Min. Relative Humidity Wind Chill (°C) Heat Index (°C) altimeter (cm) sea level (mb) 1 hr 3 hr 6 hr
6 hour
Temperature (ºC) Pressure Precipitation (cm)